Time;durP1;ratioP1;P1;durP2;ratioP2;P2;SDS_P1;SDS_P2;PMS_P1;PMS_P2;Temp;Humidity;BMP_temperature;BMP_pressure;BME280_temperature;BME280_humidity;BME280_pressure;Samples;Min_cycle;Max_cycle;Signal;HPM_P1;HPM_P2
2023/07/29 00:02:02;;;;;;;2.25;2.15;;;;;;;18.90;61.24;63957.59;5087770;28;20216;-77
2023/07/29 00:04:29;;;;;;;2.95;2.80;;;;;;;18.91;62.65;63953.50;5088453;28;20220;-77
2023/07/29 00:06:56;;;;;;;2.08;1.98;;;;;;;18.92;62.78;63956.59;5091245;28;20528;-78
2023/07/29 00:09:22;;;;;;;2.17;2.08;;;;;;;18.83;63.11;63947.72;5086651;28;20331;-77
2023/07/29 00:11:49;;;;;;;4.53;2.50;;;;;;;18.78;62.83;63939.94;5089478;28;20192;-78
2023/07/29 00:14:18;;;;;;;2.42;2.30;;;;;;;18.79;62.31;63943.56;5088581;28;20220;-77
2023/07/29 00:16:45;;;;;;;2.15;2.05;;;;;;;18.75;62.74;63941.44;5089608;28;20206;-78
2023/07/29 00:19:12;;;;;;;2.53;2.42;;;;;;;18.79;63.85;63937.88;5087155;28;20220;-77
2023/07/29 00:21:41;;;;;;;2.40;2.28;;;;;;;18.71;63.73;63932.63;5090327;28;20517;-77
2023/07/29 00:24:10;;;;;;;2.55;2.30;;;;;;;18.70;63.77;63934.19;5088964;28;20216;-79
2023/07/29 00:26:38;;;;;;;2.28;2.17;;;;;;;18.71;64.06;63935.22;5088201;28;20254;-77
2023/07/29 00:29:05;;;;;;;2.50;2.30;;;;;;;18.70;64.54;63933.66;5085654;28;20287;-78
2023/07/29 00:31:33;;;;;;;2.58;2.42;;;;;;;18.67;64.74;63936.22;5088513;28;20188;-77
2023/07/29 00:34:00;;;;;;;2.47;2.35;;;;;;;18.61;64.57;63926.84;5088756;28;20552;-77
2023/07/29 00:36:27;;;;;;;3.42;2.45;;;;;;;18.61;64.60;63921.69;5086207;28;20227;-78
2023/07/29 00:38:56;;;;;;;2.50;2.40;;;;;;;18.56;64.99;63916.47;5088677;28;20251;-77
2023/07/29 00:41:24;;;;;;;2.47;2.33;;;;;;;18.52;66.04;63918.00;5090042;28;20211;-77
2023/07/29 00:43:51;;;;;;;2.50;2.30;;;;;;;18.47;67.06;63905.06;5088446;28;20283;-78
2023/07/29 00:46:19;;;;;;;3.58;2.47;;;;;;;18.41;68.46;63901.91;5085829;28;20215;-77
2023/07/29 00:48:48;;;;;;;3.67;2.40;;;;;;;18.41;68.42;63899.31;5087739;28;20284;-78
2023/07/29 00:51:15;;;;;;;2.65;2.45;;;;;;;18.37;68.15;63902.34;5088019;28;20212;-77
2023/07/29 00:53:42;;;;;;;2.55;2.45;;;;;;;18.32;68.69;63895.09;5088038;28;20220;-78
2023/07/29 00:56:09;;;;;;;2.33;2.22;;;;;;;18.31;69.14;63891.47;5087506;28;20215;-77
2023/07/29 00:58:36;;;;;;;2.42;2.33;;;;;;;18.23;69.59;63880.03;5089102;28;20315;-77
2023/07/29 01:01:05;;;;;;;2.42;2.22;;;;;;;18.20;68.79;63877.44;5087813;28;20200;-78
2023/07/29 01:03:33;;;;;;;3.30;2.53;;;;;;;18.17;68.17;63878.94;5086059;28;20236;-78
2023/07/29 01:06:13;;;;;;;3.10;2.90;;;;;;;18.14;68.60;63871.16;5088833;28;20203;-78
2023/07/29 01:08:52;;;;;;;2.50;2.40;;;;;;;18.09;69.45;63868.53;5087719;28;20220;-77
2023/07/29 01:11:34;;;;;;;4.07;2.40;;;;;;;18.09;69.87;63865.97;5089180;28;20199;-77
2023/07/29 01:14:07;;;;;;;2.50;2.40;;;;;;;17.97;71.05;63850.38;5085830;28;20219;-78
2023/07/29 01:16:40;;;;;;;2.60;2.50;;;;;;;17.97;71.56;63855.53;5087938;28;20223;-78
2023/07/29 01:19:08;;;;;;;3.45;2.88;;;;;;;17.86;72.54;63849.72;5087392;28;20236;-79
2023/07/29 01:21:38;;;;;;;3.45;2.70;;;;;;;17.88;71.92;63851.81;5085499;28;20242;-78
2023/07/29 01:24:06;;;;;;;2.90;2.70;;;;;;;17.75;72.22;63835.72;5088633;28;20216;-77
2023/07/29 01:26:33;;;;;;;3.75;2.85;;;;;;;17.76;72.51;63831.59;5087602;28;20196;-77
2023/07/29 01:29:00;;;;;;;2.63;2.53;;;;;;;17.73;73.98;63835.66;5087315;28;20216;-78
2023/07/29 01:31:35;;;;;;;3.13;2.85;;;;;;;17.73;73.69;63836.19;5084946;28;20200;-77
2023/07/29 01:34:11;;;;;;;3.03;2.83;;;;;;;17.67;73.96;63824.28;5088161;28;20223;-78
2023/07/29 01:36:40;;;;;;;2.65;2.50;;;;;;;17.69;74.39;63826.38;5086687;28;20297;-77
2023/07/29 01:39:11;;;;;;;2.70;2.50;;;;;;;17.70;75.02;63827.41;5086735;28;20219;-78
2023/07/29 01:41:39;;;;;;;3.28;2.83;;;;;;;17.63;74.48;63820.63;5070099;28;20212;-77
2023/07/29 01:44:10;;;;;;;4.50;2.45;;;;;;;17.64;74.32;63818.56;5067022;28;20216;-78
2023/07/29 01:46:41;;;;;;;3.25;3.03;;;;;;;17.60;74.51;63822.66;5066284;28;20205;-77
2023/07/29 01:49:08;;;;;;;2.45;2.35;;;;;;;17.57;76.32;63813.88;5069349;28;20860;-78
2023/07/29 01:51:35;;;;;;;2.97;2.78;;;;;;;17.53;75.57;63812.81;5087951;28;20227;-78
2023/07/29 01:54:03;;;;;;;3.95;2.53;;;;;;;17.53;76.29;63812.28;5086289;28;20216;-78
2023/07/29 01:56:31;;;;;;;2.95;2.75;;;;;;;17.48;77.82;63805.00;5087512;28;20196;-76
2023/07/29 01:58:58;;;;;;;3.25;2.80;;;;;;;17.47;77.92;63800.88;5085175;28;20266;-78
2023/07/29 02:01:25;;;;;;;3.47;2.42;;;;;;;17.40;78.56;63796.13;5086537;28;20196;-78
2023/07/29 02:03:55;;;;;;;2.78;2.58;;;;;;;17.31;79.56;63787.81;5086121;28;20455;-77
2023/07/29 02:06:22;;;;;;;2.58;2.47;;;;;;;17.25;79.48;63778.47;5067297;28;20204;-77
2023/07/29 02:08:49;;;;;;;2.80;2.60;;;;;;;17.16;80.17;63771.69;5082638;28;20232;-76
2023/07/29 02:11:16;;;;;;;3.00;2.80;;;;;;;17.07;80.62;63765.41;5085995;28;20542;-77
2023/07/29 02:13:44;;;;;;;2.63;2.53;;;;;;;17.05;80.50;63763.31;5085038;28;20226;-77
2023/07/29 02:16:11;;;;;;;3.05;2.80;;;;;;;17.03;79.99;63758.66;5085970;28;20196;-77
2023/07/29 02:18:38;;;;;;;3.08;2.88;;;;;;;17.01;79.26;63756.59;5084701;28;20411;-78
2023/07/29 02:21:05;;;;;;;2.60;2.50;;;;;;;17.02;78.80;63759.69;5087291;28;20231;-77
2023/07/29 02:23:33;;;;;;;3.50;2.42;;;;;;;17.00;79.59;63758.13;5077109;28;20220;-76
2023/07/29 02:26:00;;;;;;;2.50;2.40;;;;;;;17.03;79.28;63761.22;5066334;28;20220;-78
2023/07/29 02:28:27;;;;;;;3.20;3.00;;;;;;;16.98;78.58;63755.53;5065985;28;20228;-77
2023/07/29 02:31:15;;;;;;;3.05;2.88;;;;;;;17.02;79.69;63757.63;5065539;28;20216;-78
2023/07/29 02:33:42;;;;;;;2.22;2.13;;;;;;;16.97;80.16;63755.00;5083643;28;20220;-79
2023/07/29 02:36:09;;;;;;;5.97;2.90;;;;;;;16.98;81.10;63750.88;5086966;28;20196;-78
2023/07/29 02:38:37;;;;;;;3.75;2.90;;;;;;;16.97;80.86;63749.84;5086019;28;20219;-77
2023/07/29 02:41:04;;;;;;;2.80;2.70;;;;;;;16.94;81.01;63751.34;5084206;28;20263;-78
2023/07/29 02:43:31;;;;;;;2.60;2.50;;;;;;;16.93;81.18;63753.41;5086338;28;20443;-77
2023/07/29 02:45:58;;;;;;;2.83;2.63;;;;;;;16.92;81.00;63747.22;5087254;28;20184;-78
2023/07/29 02:48:28;;;;;;;2.45;2.35;;;;;;;16.96;80.62;63748.28;5086096;28;20240;-78
2023/07/29 02:50:56;;;;;;;3.70;2.58;;;;;;;16.91;79.57;63746.16;5086098;28;20227;-78
2023/07/29 02:53:23;;;;;;;2.80;2.60;;;;;;;16.96;78.90;63751.38;5085919;28;20220;-78
2023/07/29 02:55:51;;;;;;;2.83;2.70;;;;;;;16.99;78.88;63753.97;5085879;28;20196;-77
2023/07/29 02:58:18;;;;;;;2.47;2.38;;;;;;;17.03;77.93;63758.16;5086247;28;20231;-78
2023/07/29 03:00:47;;;;;;;2.97;2.88;;;;;;;17.03;78.39;63758.66;5084841;28;20236;-78
2023/07/29 03:03:14;;;;;;;2.50;2.40;;;;;;;17.06;79.31;63761.28;5085431;28;20220;-77
2023/07/29 03:05:43;;;;;;;2.95;2.72;;;;;;;17.03;80.29;63763.81;5085906;28;20192;-77
2023/07/29 03:08:10;;;;;;;2.58;2.40;;;;;;;17.10;79.95;63765.94;5084267;28;20243;-76
2023/07/29 03:10:37;;;;;;;2.65;2.55;;;;;;;17.08;79.88;63761.28;5086156;28;20192;-78
2023/07/29 03:13:04;;;;;;;2.92;2.55;;;;;;;17.07;80.69;63760.25;5085694;28;20227;-78
2023/07/29 03:15:33;;;;;;;2.65;2.47;;;;;;;17.10;81.73;63762.88;5086205;28;20215;-78
2023/07/29 03:18:00;;;;;;;3.30;3.10;;;;;;;17.02;81.51;63757.63;5084288;28;20220;-77
2023/07/29 03:20:27;;;;;;;2.55;2.45;;;;;;;17.14;81.73;63772.69;5085759;28;20504;-78
2023/07/29 03:22:56;;;;;;;3.63;3.38;;;;;;;17.17;81.71;63773.25;5086079;28;20280;-78
2023/07/29 03:25:23;;;;;;;3.70;3.40;;;;;;;17.11;82.57;63767.00;5085786;28;20203;-77
2023/07/29 03:27:50;;;;;;;4.45;3.47;;;;;;;17.13;82.81;63774.22;5083895;28;20302;-77
2023/07/29 03:30:21;;;;;;;3.80;3.50;;;;;;;17.20;82.70;63775.84;5090675;28;20359;-77
2023/07/29 03:32:48;;;;;;;5.25;3.70;;;;;;;17.23;83.36;63781.53;5089375;28;20635;-77
2023/07/29 03:35:15;;;;;;;3.47;3.20;;;;;;;17.27;83.29;63786.22;5087971;28;20222;-78
2023/07/29 03:37:43;;;;;;;3.42;3.22;;;;;;;17.34;83.02;63793.00;5090297;28;20207;-77
2023/07/29 03:40:11;;;;;;;4.50;4.10;;;;;;;17.39;82.99;63795.09;5089325;28;20223;-78
2023/07/29 03:42:38;;;;;;;4.60;3.22;;;;;;;17.44;82.66;63802.88;5089427;28;20308;-77
2023/07/29 03:45:06;;;;;;;6.78;3.63;;;;;;;17.46;82.39;63804.97;5086884;28;20207;-77
2023/07/29 03:47:33;;;;;;;3.58;3.08;;;;;;;17.52;82.61;63811.22;5090428;28;20216;-78
2023/07/29 03:50:00;;;;;;;3.47;3.13;;;;;;;17.60;82.15;63817.00;5089237;28;20199;-77
2023/07/29 03:52:27;;;;;;;6.22;4.00;;;;;;;17.65;81.84;63822.72;5089180;28;20203;-77
2023/07/29 03:54:54;;;;;;;3.17;2.97;;;;;;;17.69;82.05;63829.44;5086450;28;20239;-77
2023/07/29 03:57:22;;;;;;;2.95;2.85;;;;;;;17.73;83.54;63833.09;5088590;28;20199;-78
2023/07/29 03:59:49;;;;;;;3.92;3.08;;;;;;;17.78;83.95;63836.25;5089351;28;20212;-77
2023/07/29 04:02:17;;;;;;;3.65;3.45;;;;;;;17.79;83.89;63839.88;5087206;28;20215;-77
2023/07/29 04:04:47;;;;;;;6.60;2.85;;;;;;;17.88;84.11;63848.72;5075969;28;20211;-77
2023/07/29 04:07:14;;;;;;;3.22;2.95;;;;;;;17.96;85.20;63857.06;5089019;28;20196;-78
2023/07/29 04:09:43;;;;;;;3.55;3.30;;;;;;;17.94;84.70;63852.94;5088699;28;20250;-78
2023/07/29 04:12:10;;;;;;;3.53;3.33;;;;;;;18.02;84.39;63861.25;5086332;28;20200;-77
2023/07/29 04:14:38;;;;;;;3.45;3.25;;;;;;;17.97;84.95;63858.09;5089605;28;20224;-77
2023/07/29 04:17:06;;;;;;;6.50;3.67;;;;;;;18.08;84.36;63869.56;5090083;28;20425;-77
2023/07/29 04:19:33;;;;;;;3.97;3.60;;;;;;;18.08;83.04;63870.09;5088250;28;20456;-77
2023/07/29 04:22:00;;;;;;;5.22;3.58;;;;;;;18.13;81.74;63872.72;5088161;28;20204;-78
2023/07/29 04:24:27;;;;;;;5.00;3.75;;;;;;;18.11;82.02;63872.69;5088192;28;20235;-77
2023/07/29 04:26:54;;;;;;;4.20;3.55;;;;;;;18.22;83.26;63882.06;5087515;28;20200;-78
2023/07/29 04:29:22;;;;;;;3.90;3.60;;;;;;;18.21;82.75;63881.03;5088381;28;20536;-77
2023/07/29 04:31:50;;;;;;;3.67;3.47;;;;;;;18.32;82.23;63897.66;5089286;28;20204;-77
2023/07/29 04:34:19;;;;;;;4.20;3.78;;;;;;;18.33;84.17;63895.59;5088242;28;20231;-77
2023/07/29 04:36:46;;;;;;;4.22;3.85;;;;;;;18.42;85.02;63902.94;5088471;28;20282;-76
2023/07/29 04:39:13;;;;;;;4.38;3.97;;;;;;;18.58;83.89;63918.56;5088494;28;20212;-77
2023/07/29 04:41:41;;;;;;;3.60;3.40;;;;;;;18.72;82.89;63938.84;5086205;28;20470;-78
2023/07/29 04:44:08;;;;;;;5.05;4.22;;;;;;;18.86;82.28;63947.75;5089708;28;20276;-78
2023/07/29 04:46:36;;;;;;;4.10;3.80;;;;;;;18.97;81.41;63959.75;5087125;28;20203;-76
2023/07/29 04:49:04;;;;;;;5.13;3.65;;;;;;;18.93;82.51;63955.56;5088316;28;20615;-77
2023/07/29 04:51:32;;;;;;;4.32;3.92;;;;;;;18.84;83.11;63946.19;5087138;28;20207;-77
2023/07/29 04:54:00;;;;;;;4.55;4.22;;;;;;;18.81;82.30;63948.22;5087112;28;20485;-76
2023/07/29 04:56:27;;;;;;;6.40;4.47;;;;;;;18.60;83.32;63921.19;5087694;28;20187;-77
2023/07/29 04:58:55;;;;;;;5.65;3.90;;;;;;;18.56;84.80;63919.06;5087270;28;20208;-78
2023/07/29 05:01:22;;;;;;;5.10;4.57;;;;;;;18.62;83.83;63927.91;5085570;28;20250;-77
2023/07/29 05:03:49;;;;;;;4.10;3.70;;;;;;;18.69;83.67;63935.22;5087579;28;20216;-76
2023/07/29 05:06:17;;;;;;;4.63;4.22;;;;;;;18.76;82.75;63940.44;5087619;28;20254;-77
2023/07/29 05:08:44;;;;;;;5.18;4.25;;;;;;;18.80;81.65;63947.19;5085927;28;20235;-76
2023/07/29 05:11:11;;;;;;;6.32;3.83;;;;;;;18.96;81.68;63955.59;5088304;28;20214;-77
2023/07/29 05:13:38;;;;;;;5.40;4.13;;;;;;;19.10;80.62;63973.28;5087345;28;20212;-78
2023/07/29 05:16:05;;;;;;;4.80;4.22;;;;;;;19.21;80.06;63986.81;5087939;28;20260;-77
2023/07/29 05:18:32;;;;;;;5.85;4.20;;;;;;;19.14;78.68;63980.03;5085149;28;20220;-76
2023/07/29 05:20:59;;;;;;;4.45;4.05;;;;;;;19.30;77.82;63993.66;5087157;28;20204;-75
2023/07/29 05:23:28;;;;;;;5.72;4.63;;;;;;;19.42;76.80;64006.16;5088413;28;20220;-77
2023/07/29 05:25:55;;;;;;;4.35;3.95;;;;;;;19.52;76.44;64019.69;5089005;28;20511;-77
2023/07/29 05:28:22;;;;;;;4.00;3.80;;;;;;;19.60;74.02;64024.41;5084655;28;20245;-77
2023/07/29 05:30:49;;;;;;;5.03;3.80;;;;;;;19.66;75.81;64028.59;5087596;28;20196;-77
2023/07/29 05:33:16;;;;;;;5.97;4.82;;;;;;;19.59;76.07;64025.97;5087516;28;20216;-77
2023/07/29 05:35:43;;;;;;;13.77;5.15;;;;;;;19.51;75.88;64013.50;5084572;28;20443;-77
2023/07/29 05:38:10;;;;;;;14.10;4.70;;;;;;;19.73;75.15;64043.13;5086302;28;20234;-76
2023/07/29 05:40:38;;;;;;;6.57;4.13;;;;;;;19.93;74.08;64059.34;5088417;28;20208;-77
2023/07/29 05:43:05;;;;;;;10.32;4.60;;;;;;;20.10;71.51;64081.75;5086021;28;20227;-76
2023/07/29 05:45:32;;;;;;;6.40;4.28;;;;;;;20.06;71.61;64078.09;5084283;28;20273;-77
2023/07/29 05:47:59;;;;;;;7.95;4.15;;;;;;;20.00;71.32;64069.25;5086762;28;20228;-76
2023/07/29 05:50:26;;;;;;;4.90;4.25;;;;;;;20.18;70.23;64082.34;5086481;28;20202;-78
2023/07/29 05:52:53;;;;;;;5.72;4.32;;;;;;;20.39;70.23;64109.97;5085825;28;20387;-78
2023/07/29 05:55:20;;;;;;;4.95;4.45;;;;;;;20.50;69.00;64118.34;5085811;28;20246;-76
2023/07/29 05:57:49;;;;;;;6.97;4.22;;;;;;;20.44;68.64;64112.06;5086426;28;20216;-77
2023/07/29 06:00:16;;;;;;;10.13;4.40;;;;;;;20.73;68.11;64144.94;5087317;28;20204;-78
2023/07/29 06:02:43;;;;;;;4.50;4.20;;;;;;;20.98;66.98;64165.34;5084893;28;20254;-77
2023/07/29 06:05:10;;;;;;;6.50;4.05;;;;;;;21.07;65.95;64180.44;5086559;28;20202;-76
2023/07/29 06:07:37;;;;;;;6.32;4.22;;;;;;;21.11;63.68;64181.50;5085994;28;20242;-76
2023/07/29 06:10:05;;;;;;;9.10;3.63;;;;;;;21.06;62.36;64181.47;5085806;28;20243;-77
2023/07/29 06:12:32;;;;;;;7.05;4.60;;;;;;;21.17;63.18;64190.38;5083971;28;20212;-76
2023/07/29 06:15:00;;;;;;;8.75;3.85;;;;;;;21.35;62.38;64211.75;5086552;28;20216;-79
2023/07/29 06:17:27;;;;;;;5.13;3.28;;;;;;;21.65;61.61;64237.91;5086522;28;20196;-77
2023/07/29 06:19:55;;;;;;;4.30;3.80;;;;;;;21.58;61.78;64233.19;5086681;28;20211;-78
2023/07/29 06:22:22;;;;;;;3.85;3.50;;;;;;;21.72;60.83;64250.94;5083692;28;20200;-79
2023/07/29 06:24:49;;;;;;;4.28;3.88;;;;;;;21.95;60.59;64269.28;5086154;28;20216;-78
2023/07/29 06:27:16;;;;;;;3.67;3.30;;;;;;;22.08;58.07;64290.66;5085493;28;20390;-77
2023/07/29 06:29:43;;;;;;;10.55;3.30;;;;;;;22.07;60.07;64283.91;5084663;28;20282;-77
2023/07/29 06:32:12;;;;;;;5.55;3.00;;;;;;;22.10;57.31;64289.63;5086133;28;20192;-78
2023/07/29 06:34:39;;;;;;;4.07;3.70;;;;;;;22.21;57.21;64301.13;5085751;28;20238;-78
2023/07/29 06:37:07;;;;;;;2.90;2.80;;;;;;;22.21;56.56;64301.63;5086234;28;20267;-77
2023/07/29 06:39:34;;;;;;;7.55;2.95;;;;;;;22.26;58.47;64304.28;5083111;28;20509;-76
2023/07/29 06:42:02;;;;;;;3.45;3.25;;;;;;;22.30;59.29;64313.13;5086007;28;20203;-77
2023/07/29 06:44:29;;;;;;;5.13;2.97;;;;;;;22.47;57.56;64325.69;5085454;28;20489;-77
2023/07/29 06:46:56;;;;;;;3.08;2.92;;;;;;;22.54;57.30;64328.38;5086802;28;20233;-77
2023/07/29 06:49:25;;;;;;;4.20;3.05;;;;;;;22.60;54.87;64339.31;5083612;28;20474;-77
2023/07/29 06:51:52;;;;;;;2.90;2.70;;;;;;;22.56;55.48;64337.72;5086182;28;20206;-77
2023/07/29 06:54:19;;;;;;;3.28;3.08;;;;;;;22.58;55.00;64339.81;5084938;28;20219;-77
2023/07/29 06:56:47;;;;;;;4.78;3.15;;;;;;;22.56;56.17;64333.06;5082881;28;20259;-77
2023/07/29 06:59:14;;;;;;;3.60;3.30;;;;;;;22.74;54.48;64351.88;5085609;28;20581;-76
2023/07/29 07:01:41;;;;;;;3.85;3.60;;;;;;;22.95;53.43;64375.91;5086127;28;20253;-76
2023/07/29 07:04:08;;;;;;;2.97;2.78;;;;;;;23.07;52.77;64385.34;5086335;28;20306;-76
2023/07/29 07:06:37;;;;;;;3.50;3.15;;;;;;;23.17;52.47;64395.81;5083714;28;20219;-77
2023/07/29 07:09:04;;;;;;;3.42;2.67;;;;;;;23.25;52.47;64406.75;5087787;28;20236;-77
2023/07/29 07:11:31;;;;;;;3.38;3.08;;;;;;;23.29;50.89;64408.38;5085541;28;20199;-78
2023/07/29 07:13:58;;;;;;;3.20;3.00;;;;;;;23.19;50.63;64395.81;5086273;28;20257;-77
2023/07/29 07:16:26;;;;;;;3.35;3.13;;;;;;;23.36;50.25;64418.81;5083822;28;20265;-78
2023/07/29 07:18:52;;;;;;;6.18;2.70;;;;;;;23.45;50.38;64425.13;5085237;28;20222;-77
2023/07/29 07:21:19;;;;;;;3.92;3.63;;;;;;;23.58;51.50;64441.31;5085209;28;20208;-77
2023/07/29 07:23:50;;;;;;;3.25;2.95;;;;;;;23.72;50.51;64459.09;5086070;28;20315;-76
2023/07/29 07:26:17;;;;;;;3.83;2.95;;;;;;;23.82;50.18;64469.56;5066631;28;20231;-76
2023/07/29 07:28:44;;;;;;;3.85;3.45;;;;;;;23.92;50.10;64476.88;5066351;28;20236;-78
2023/07/29 07:31:11;;;;;;;3.85;3.20;;;;;;;24.00;49.46;64485.78;5085659;28;20191;-76
2023/07/29 07:33:38;;;;;;;3.70;2.90;;;;;;;24.12;48.55;64492.63;5082829;28;20224;-77
2023/07/29 07:36:05;;;;;;;5.10;3.05;;;;;;;23.92;48.45;64476.88;5085525;28;20255;-77
2023/07/29 07:38:32;;;;;;;3.70;3.20;;;;;;;24.01;48.78;64483.72;5088971;28;20254;-78
2023/07/29 07:41:00;;;;;;;3.30;3.10;;;;;;;24.16;49.22;64499.41;5091816;28;20242;-74
2023/07/29 07:43:28;;;;;;;3.97;3.70;;;;;;;24.16;49.13;64496.31;5081800;28;20215;-77
2023/07/29 07:45:59;;;;;;;4.70;3.05;;;;;;;24.19;48.80;64499.44;5085143;28;20208;-79
2023/07/29 07:48:26;;;;;;;6.32;3.05;;;;;;;24.34;47.97;64522.94;5085093;28;20216;-77
2023/07/29 07:50:53;;;;;;;6.22;3.70;;;;;;;24.53;47.99;64542.84;5083719;28;20203;-77
2023/07/29 07:53:20;;;;;;;4.45;3.10;;;;;;;24.64;48.81;64554.38;5089865;28;20284;-77
2023/07/29 07:55:48;;;;;;;3.28;3.05;;;;;;;24.76;47.63;64561.75;5086224;28;20204;-78
2023/07/29 07:58:16;;;;;;;5.55;3.60;;;;;;;24.82;47.96;64568.00;5085410;28;20304;-76
2023/07/29 08:00:43;;;;;;;4.60;3.42;;;;;;;24.58;47.35;64542.88;5082078;28;20253;-78
2023/07/29 08:03:10;;;;;;;7.00;3.40;;;;;;;24.60;47.04;64547.56;5085514;28;20251;-77
2023/07/29 08:05:37;;;;;;;4.57;3.13;;;;;;;24.69;46.73;64552.34;5085617;28;20485;-77
2023/07/29 08:08:05;;;;;;;5.50;3.42;;;;;;;24.73;46.37;64561.72;5086578;28;20283;-77
2023/07/29 08:10:32;;;;;;;5.32;3.08;;;;;;;24.87;46.44;64575.84;5084548;28;20232;-78
2023/07/29 08:12:59;;;;;;;3.45;3.25;;;;;;;24.98;46.37;64587.91;5086038;28;20216;-75
2023/07/29 08:15:28;;;;;;;5.38;3.28;;;;;;;24.85;47.30;64576.38;5084359;28;20196;-76
2023/07/29 08:17:55;;;;;;;5.30;3.17;;;;;;;24.93;46.67;64587.91;5086962;28;20220;-77
2023/07/29 08:20:23;;;;;;;4.90;3.38;;;;;;;24.93;46.45;64585.28;5090535;28;20207;-78
2023/07/29 08:22:50;;;;;;;4.20;3.13;;;;;;;25.10;46.50;64602.56;5088550;28;20223;-78
2023/07/29 08:25:17;;;;;;;5.10;3.45;;;;;;;25.35;46.43;64628.22;5089146;28;20249;-78
2023/07/29 08:27:44;;;;;;;3.88;3.15;;;;;;;25.29;46.17;64619.84;5085413;28;20415;-77
2023/07/29 08:30:11;;;;;;;3.40;3.20;;;;;;;25.26;45.28;64614.13;5087453;28;20236;-77
2023/07/29 08:32:40;;;;;;;4.50;3.40;;;;;;;25.29;45.47;64621.94;5087957;28;20195;-77
2023/07/29 08:35:07;;;;;;;4.25;3.50;;;;;;;25.35;46.44;64625.63;5091344;28;20192;-79
2023/07/29 08:37:35;;;;;;;5.82;3.35;;;;;;;25.42;45.29;64636.09;5086830;28;20211;-79
2023/07/29 08:40:03;;;;;;;3.08;2.88;;;;;;;25.22;44.24;64615.13;5089159;28;20242;-76
2023/07/29 08:42:32;;;;;;;3.92;3.60;;;;;;;25.04;45.11;64596.78;5087959;28;20392;-76
2023/07/29 08:45:07;;;;;;;3.30;2.97;;;;;;;25.25;44.80;64612.53;5088274;28;20385;-78
2023/07/29 08:47:34;;;;;;;3.42;3.17;;;;;;;25.49;44.63;64640.31;5071464;28;20203;-78
2023/07/29 08:50:06;;;;;;;3.53;3.22;;;;;;;25.59;46.00;64651.31;5072325;28;20228;-77
2023/07/29 08:52:35;;;;;;;3.47;3.17;;;;;;;25.59;45.39;64651.31;5068138;28;20201;-77
2023/07/29 08:55:03;;;;;;;3.13;2.95;;;;;;;25.74;43.63;64669.66;5074825;28;20196;-76
2023/07/29 08:57:31;;;;;;;5.30;3.10;;;;;;;25.57;42.64;64646.09;5087682;28;20380;-77
2023/07/29 09:00:00;;;;;;;5.22;2.90;;;;;;;25.53;42.99;64647.09;5088500;28;20192;-80
2023/07/29 09:02:27;;;;;;;3.25;2.95;;;;;;;25.72;42.16;64664.94;5092500;28;20215;-79
2023/07/29 09:04:55;;;;;;;7.00;2.92;;;;;;;25.96;41.74;64686.94;5087326;28;20283;-77
2023/07/29 09:07:23;;;;;;;3.17;2.72;;;;;;;26.05;41.80;64701.63;5087741;28;20226;-79
2023/07/29 09:09:53;;;;;;;2.47;2.38;;;;;;;26.23;41.48;64717.38;5088963;28;20231;-78
2023/07/29 09:12:21;;;;;;;3.00;2.65;;;;;;;26.29;40.16;64721.03;5085762;28;20523;-78
2023/07/29 09:14:48;;;;;;;2.40;2.22;;;;;;;26.42;39.95;64737.28;5090329;28;20208;-78
2023/07/29 09:17:15;;;;;;;2.90;2.70;;;;;;;26.59;39.71;64755.66;5090396;28;20224;-76
2023/07/29 09:19:43;;;;;;;4.80;2.45;;;;;;;26.57;39.53;64755.63;5088392;28;20220;-77
2023/07/29 09:22:19;;;;;;;4.35;2.70;;;;;;;26.48;38.23;64746.72;5085650;28;20226;-77
2023/07/29 09:24:48;;;;;;;2.55;2.00;;;;;;;26.40;38.39;64737.81;5087375;28;20238;-78
2023/07/29 09:27:26;;;;;;;2.78;2.10;;;;;;;26.46;38.26;64741.47;5086855;28;20223;-76
2023/07/29 09:29:53;;;;;;;3.05;2.08;;;;;;;26.46;38.86;64738.84;5093244;28;20253;-77
2023/07/29 09:32:21;;;;;;;2.63;2.42;;;;;;;26.57;38.35;64750.41;5085365;28;20255;-78
2023/07/29 09:34:49;;;;;;;2.33;2.22;;;;;;;26.67;39.23;64760.91;5087595;28;20212;-76
2023/07/29 09:37:18;;;;;;;1.85;1.75;;;;;;;26.75;37.71;64771.91;5086741;28;20196;-78
2023/07/29 09:39:48;;;;;;;2.88;2.03;;;;;;;26.86;38.60;64783.97;5082457;28;20220;-76
2023/07/29 09:42:19;;;;;;;1.85;1.75;;;;;;;27.02;36.95;64806.00;5066491;28;20197;-77
2023/07/29 09:44:46;;;;;;;2.03;1.90;;;;;;;27.03;37.21;64807.03;5070152;28;20259;-77
2023/07/29 09:47:21;;;;;;;2.33;2.22;;;;;;;27.21;38.79;64820.16;5066865;28;20196;-78
2023/07/29 09:49:49;;;;;;;2.25;2.00;;;;;;;27.34;39.38;64835.91;5077999;28;20235;-78
2023/07/29 09:52:17;;;;;;;1.98;1.88;;;;;;;27.45;36.11;64847.44;5086658;28;20187;-77
2023/07/29 09:54:45;;;;;;;2.03;1.92;;;;;;;27.31;36.52;64830.66;5086594;28;20558;-77
2023/07/29 09:57:15;;;;;;;2.20;2.10;;;;;;;27.39;35.50;64836.44;5086335;28;20204;-77
2023/07/29 09:59:43;;;;;;;3.13;2.10;;;;;;;27.47;36.26;64852.69;5088149;28;20226;-76
2023/07/29 10:02:15;;;;;;;1.77;1.67;;;;;;;27.50;35.82;64852.69;5086357;28;20202;-76
2023/07/29 10:04:46;;;;;;;3.00;1.90;;;;;;;27.71;36.84;64875.28;5087732;28;20220;-77
2023/07/29 10:07:14;;;;;;;2.10;2.00;;;;;;;27.86;36.34;64887.84;5085799;28;20204;-78
2023/07/29 10:09:41;;;;;;;1.20;1.20;;;;;;;28.04;35.81;64906.78;5086683;28;20232;-78
2023/07/29 10:12:09;;;;;;;2.08;1.60;;;;;;;28.13;34.57;64916.75;5087661;28;20219;-78
2023/07/29 10:14:39;;;;;;;2.08;1.58;;;;;;;28.17;34.86;64925.66;5089757;28;20220;-77
2023/07/29 10:17:07;;;;;;;1.98;1.88;;;;;;;28.20;35.60;64928.81;5084321;28;20208;-79
2023/07/29 10:19:37;;;;;;;1.80;1.70;;;;;;;28.23;35.06;64926.72;5086595;28;20212;-77
2023/07/29 10:22:06;;;;;;;1.80;1.70;;;;;;;28.26;35.31;64929.88;5087175;28;20196;-78
2023/07/29 10:24:35;;;;;;;1.70;1.60;;;;;;;28.27;34.01;64931.44;5084789;28;20559;-77
2023/07/29 10:27:03;;;;;;;2.17;1.65;;;;;;;28.07;34.67;64913.06;5083898;28;20200;-77
2023/07/29 10:29:33;;;;;;;1.50;1.50;;;;;;;28.26;33.82;64933.03;5090324;28;20239;-78
2023/07/29 10:32:04;;;;;;;4.10;1.63;;;;;;;28.27;33.50;64934.06;5086348;28;20188;-76
2023/07/29 10:34:33;;;;;;;2.53;1.45;;;;;;;28.45;33.50;64955.06;5085294;28;20216;-77
2023/07/29 10:37:00;;;;;;;2.45;1.83;;;;;;;28.62;32.80;64964.53;5087137;28;20188;-76
2023/07/29 10:39:28;;;;;;;1.10;1.10;;;;;;;28.54;32.63;64961.38;5084785;28;20224;-76
2023/07/29 10:42:00;;;;;;;1.88;1.77;;;;;;;28.60;32.66;64965.06;5090631;28;20206;-79
2023/07/29 10:44:50;;;;;;;1.50;1.50;;;;;;;28.73;32.80;64979.25;5085633;28;20220;-77
2023/07/29 10:47:19;;;;;;;1.50;1.40;;;;;;;28.77;31.97;64986.06;5086830;28;20196;-77
2023/07/29 10:49:48;;;;;;;2.67;1.58;;;;;;;28.92;33.03;65001.31;5085942;28;20231;-77
2023/07/29 10:52:16;;;;;;;1.60;1.60;;;;;;;28.98;32.59;65004.97;5084009;28;20215;-77
2023/07/29 10:54:44;;;;;;;1.50;1.40;;;;;;;28.92;33.18;64999.22;5085785;28;20386;-78
2023/07/29 10:57:15;;;;;;;5.50;2.15;;;;;;;28.91;32.69;65005.50;5087819;28;20196;-77
2023/07/29 10:59:53;;;;;;;2.83;1.73;;;;;;;28.37;32.83;64941.94;5084522;28;20262;-77
2023/07/29 11:02:23;;;;;;;1.52;1.50;;;;;;;28.47;32.85;64951.94;5084264;28;20212;-78
2023/07/29 11:04:51;;;;;;;3.08;1.73;;;;;;;28.56;33.47;64964.00;5085785;28;20199;-78
2023/07/29 11:07:28;;;;;;;4.47;1.98;;;;;;;28.46;33.22;64950.34;5084683;28;20200;-79
2023/07/29 11:10:00;;;;;;;3.13;2.15;;;;;;;28.52;33.06;64956.66;5088959;28;20287;-77
2023/07/29 11:12:42;;;;;;;1.65;1.55;;;;;;;28.84;32.30;64988.16;5085030;28;20227;-79
2023/07/29 11:15:23;;;;;;;1.15;1.15;;;;;;;28.99;31.42;65006.03;5084546;28;20372;-77
2023/07/29 11:17:54;;;;;;;1.40;1.30;;;;;;;29.08;31.43;65018.13;5085096;28;20224;-77
2023/07/29 11:20:22;;;;;;;3.72;1.60;;;;;;;29.04;31.79;65014.44;5073770;28;20301;-78
2023/07/29 11:22:51;;;;;;;2.45;1.90;;;;;;;29.02;32.04;65012.34;5065915;28;20258;-79
2023/07/29 11:25:20;;;;;;;4.32;1.90;;;;;;;29.07;31.33;65019.69;5072924;28;20242;-77
2023/07/29 11:27:47;;;;;;;1.60;1.60;;;;;;;29.07;31.32;65011.81;5065640;28;20217;-77
2023/07/29 11:30:16;;;;;;;2.03;1.17;;;;;;;29.05;31.11;65017.56;5080823;28;20555;-77
2023/07/29 11:32:45;;;;;;;1.30;1.27;;;;;;;29.28;30.84;65037.06;5085026;28;20196;-78
2023/07/29 11:35:15;;;;;;;1.80;1.20;;;;;;;29.50;30.01;65062.25;5087517;28;20188;-79
2023/07/29 11:37:43;;;;;;;2.38;2.03;;;;;;;29.71;30.73;65081.72;5087688;28;20199;-79
2023/07/29 11:40:14;;;;;;;2.78;1.65;;;;;;;29.82;30.94;65092.75;5086868;28;20208;-78